Time;durP1;ratioP1;P1;durP2;ratioP2;P2;SDS_P1;SDS_P2;PMS_P1;PMS_P2;Temp;Humidity;BMP_temperature;BMP_pressure;BME280_temperature;BME280_humidity;BME280_pressure;Samples;Min_cycle;Max_cycle;Signal;HPM_P1;HPM_P2
2023/10/17 00:02:26;;;;;;;;;;;;;;;;;;5071496;28;19920;-64
2023/10/17 00:04:52;;;;;;;;;;;;;;;;;;5053392;28;19950;-64
2023/10/17 00:07:20;;;;;;;;;;;;;;;;;;5071154;28;19920;-64
2023/10/17 00:09:47;;;;;;;;;;;;;;;;;;5072366;28;19920;-63
2023/10/17 00:14:45;;;;;;;;;;;;;;;;;;5075183;28;20313;-63
2023/10/17 00:17:15;;;;;;;;;;;;;;;;;;5068260;28;19924;-65
2023/10/17 00:19:41;;;;;;;;;;;;;;;;;;5055084;28;19920;-63
2023/10/17 00:22:09;;;;;;;;;;;;;;;;;;5037046;28;19990;-63
2023/10/17 00:24:35;;;;;;;;;;;;;;;;;;5054683;28;19925;-63
2023/10/17 00:27:02;;;;;;;;;;;;;;;;;;5054818;28;20255;-63
2023/10/17 00:29:28;;;;;;;;;;;;;;;;;;5055158;28;20012;-63
2023/10/17 00:31:55;;;;;;;;;;;;;;;;;;5054862;28;20015;-64
2023/10/17 00:34:23;;;;;;;;;;;;;;;;;;5054920;28;19928;-64
2023/10/17 00:36:49;;;;;;;;;;;;;;;;;;5054616;28;20416;-64
2023/10/17 00:39:22;;;;;;;;;;;;;;;;;;5054705;22;19925;-68
2023/10/17 00:44:32;;;;;;;;;;;;;;;;;;5034862;28;19929;-69
2023/10/17 00:46:58;;;;;;;;;;;;;;;;;;5034940;28;20609;-68
2023/10/17 00:49:25;;;;;;;;;;;;;;;;;;5034703;28;19925;-69
2023/10/17 00:51:52;;;;;;;;;;;;;;;;;;5034920;28;19932;-68
2023/10/17 00:54:18;;;;;;;;;;;;;;;;;;5036612;28;19924;-69
2023/10/17 00:56:44;;;;;;;;;;;;;;;;;;5045048;28;20385;-69
2023/10/17 00:59:09;;;;;;;;;;;;;;;;;;5034767;28;20055;-68
2023/10/17 01:01:35;;;;;;;;;;;;;;;;;;5034583;28;19921;-68
2023/10/17 01:04:02;;;;;;;;;;;;;;;;;;5034097;28;19940;-67
2023/10/17 01:06:36;;;;;;;;;;;;;;;;;;5034594;28;19921;-68
2023/10/17 01:09:17;;;;;;;;;;;;;;;;;;5034197;28;20412;-69
2023/10/17 01:11:43;;;;;;;;;;;;;;;;;;5034324;28;19927;-68
2023/10/17 01:14:09;;;;;;;;;;;;;;;;;;5015607;28;19925;-69
2023/10/17 01:16:35;;;;;;;;;;;;;;;;;;5034394;28;19936;-68
2023/10/17 01:19:06;;;;;;;;;;;;;;;;;;4999902;28;20019;-69
2023/10/17 01:21:32;;;;;;;;;;;;;;;;;;5033286;28;19925;-69
2023/10/17 01:23:58;;;;;;;;;;;;;;;;;;5034091;28;19929;-68
2023/10/17 01:26:26;;;;;;;;;;;;;;;;;;5016220;28;19995;-68
2023/10/17 01:28:52;;;;;;;;;;;;;;;;;;5034099;28;19956;-68
2023/10/17 01:31:24;;;;;;;;;;;;;;;;;;5015929;28;19921;-69
2023/10/17 01:33:59;;;;;;;;;;;;;;;;;;5034027;28;19925;-68
2023/10/17 01:36:25;;;;;;;;;;;;;;;;;;5049268;28;20004;-69
2023/10/17 01:38:51;;;;;;;;;;;;;;;;;;5033623;28;20028;-69
2023/10/17 01:41:20;;;;;;;;;;;;;;;;;;5049314;28;20024;-69
2023/10/17 01:43:46;;;;;;;;;;;;;;;;;;5033424;28;20004;-69
2023/10/17 01:46:15;;;;;;;;;;;;;;;;;;5033893;28;19925;-69
2023/10/17 01:48:46;;;;;;;;;;;;;;;;;;5048788;28;20341;-69
2023/10/17 01:51:14;;;;;;;;;;;;;;;;;;5033820;28;19925;-68
2023/10/17 01:53:40;;;;;;;;;;;;;;;;;;5018802;28;19929;-68
2023/10/17 01:56:13;;;;;;;;;;;;;;;;;;5035475;28;19928;-68
2023/10/17 01:58:39;;;;;;;;;;;;;;;;;;5051949;28;19924;-68
2023/10/17 02:01:14;;;;;;;;;;;;;;;;;;5053805;28;19974;-68
2023/10/17 02:03:40;;;;;;;;;;;;;;;;;;5054164;28;20167;-68
2023/10/17 02:06:16;;;;;;;;;;;;;;;;;;5052759;28;19928;-68
2023/10/17 02:08:42;;;;;;;;;;;;;;;;;;5053186;28;20374;-68
2023/10/17 02:11:12;;;;;;;;;;;;;;;;;;5035380;28;20381;-69
2023/10/17 02:13:40;;;;;;;;;;;;;;;;;;5052932;28;19927;-68
2023/10/17 02:16:06;;;;;;;;;;;;;;;;;;5052950;28;19920;-69
2023/10/17 02:18:32;;;;;;;;;;;;;;;;;;5017076;28;19975;-68
2023/10/17 02:21:04;;;;;;;;;;;;;;;;;;5032970;28;19925;-68
2023/10/17 02:23:34;;;;;;;;;;;;;;;;;;5032968;28;20011;-68
2023/10/17 02:26:09;;;;;;;;;;;;;;;;;;5033091;28;20291;-69
2023/10/17 02:28:44;;;;;;;;;;;;;;;;;;5047996;28;19928;-68
2023/10/17 02:31:10;;;;;;;;;;;;;;;;;;5048181;28;19925;-68
2023/10/17 02:33:41;;;;;;;;;;;;;;;;;;5014487;28;19970;-69
2023/10/17 02:36:13;;;;;;;;;;;;;;;;;;5032950;28;19921;-69
2023/10/17 02:38:39;;;;;;;;;;;;;;;;;;5032229;28;19921;-68
2023/10/17 02:41:08;;;;;;;;;;;;;;;;;;5048149;28;19925;-69
2023/10/17 02:43:37;;;;;;;;;;;;;;;;;;5032743;28;19925;-68
2023/10/17 02:46:04;;;;;;;;;;;;;;;;;;5047861;28;19921;-69
2023/10/17 02:48:30;;;;;;;;;;;;;;;;;;5014776;28;19948;-69
2023/10/17 02:50:59;;;;;;;;;;;;;;;;;;5014691;28;20375;-69
2023/10/17 02:53:25;;;;;;;;;;;;;;;;;;5010675;28;19943;-68
2023/10/17 02:55:51;;;;;;;;;;;;;;;;;;5045768;28;19971;-68
2023/10/17 02:58:17;;;;;;;;;;;;;;;;;;5014701;28;20318;-68
2023/10/17 03:00:47;;;;;;;;;;;;;;;;;;5014327;28;19975;-68
2023/10/17 03:03:13;;;;;;;;;;;;;;;;;;5032513;28;19975;-68
2023/10/17 03:05:39;;;;;;;;;;;;;;;;;;5032305;28;19922;-68
2023/10/17 03:08:10;;;;;;;;;;;;;;;;;;5032408;28;20004;-70
2023/10/17 03:10:39;;;;;;;;;;;;;;;;;;5031777;28;19925;-69
2023/10/17 03:13:06;;;;;;;;;;;;;;;;;;5031217;28;19921;-68
2023/10/17 03:15:38;;;;;;;;;;;;;;;;;;5030949;28;19975;-68
2023/10/17 03:18:06;;;;;;;;;;;;;;;;;;5031389;28;19965;-69
2023/10/17 03:20:41;;;;;;;;;;;;;;;;;;5031353;28;19925;-68
2023/10/17 03:23:10;;;;;;;;;;;;;;;;;;5046678;28;19926;-69
2023/10/17 03:25:39;;;;;;;;;;;;;;;;;;5030990;28;19925;-68
2023/10/17 03:28:08;;;;;;;;;;;;;;;;;;5031974;28;19922;-69
2023/10/17 03:30:34;;;;;;;;;;;;;;;;;;5031753;28;20313;-68
2023/10/17 03:35:27;;;;;;;;;;;;;;;;;;5030963;28;19921;-68
2023/10/17 03:37:56;;;;;;;;;;;;;;;;;;5047348;28;20325;-68
2023/10/17 03:40:35;;;;;;;;;;;;;;;;;;5030663;28;19929;-68
2023/10/17 03:43:11;;;;;;;;;;;;;;;;;;5031375;28;19929;-69
2023/10/17 03:45:43;;;;;;;;;;;;;;;;;;5033305;28;19971;-69
2023/10/17 03:48:15;;;;;;;;;;;;;;;;;;5035101;28;19933;-68
2023/10/17 03:53:15;;;;;;;;;;;;;;;;;;5046703;28;19921;-69
2023/10/17 03:55:42;;;;;;;;;;;;;;;;;;5055695;28;19924;-68
2023/10/17 03:58:18;;;;;;;;;;;;;;;;;;5055785;28;19960;-69
2023/10/17 04:00:45;;;;;;;;;;;;;;;;;;5056030;28;19979;-69
2023/10/17 04:03:21;;;;;;;;;;;;;;;;;;5055731;28;19998;-69
2023/10/17 04:05:49;;;;;;;;;;;;;;;;;;5055522;28;19967;-69
2023/10/17 04:08:17;;;;;;;;;;;;;;;;;;5070790;28;19928;-69
2023/10/17 04:11:36;;;;;;;;;;;;;;;;;;5055521;28;20374;-69
2023/10/17 04:13:37;;;;;;;;;;;;;;;;;;5047674;28;19921;-68
2023/10/17 04:16:09;;;;;;;;;;;;;;;;;;5055213;28;19921;-68
2023/10/17 04:18:37;;;;;;;;;;;;;;;;;;5037353;28;19972;-68
2023/10/17 04:21:16;;;;;;;;;;;;;;;;;;5035085;28;20290;-68
2023/10/17 04:23:43;;;;;;;;;;;;;;;;;;5035421;28;20281;-68
2023/10/17 04:26:17;;;;;;;;;;;;;;;;;;5050113;28;19928;-69
2023/10/17 04:28:48;;;;;;;;;;;;;;;;;;5035188;28;19991;-68
2023/10/17 04:31:21;;;;;;;;;;;;;;;;;;5034854;28;19921;-68
2023/10/17 04:33:48;;;;;;;;;;;;;;;;;;5050301;28;19925;-69
2023/10/17 04:36:15;;;;;;;;;;;;;;;;;;5034744;28;19929;-69
2023/10/17 04:38:46;;;;;;;;;;;;;;;;;;5034599;28;20291;-67
2023/10/17 04:41:40;;;;;;;;;;;;;;;;;;5034835;28;19925;-68
2023/10/17 04:44:15;;;;;;;;;;;;;;;;;;5034910;28;19932;-68
2023/10/17 04:46:49;;;;;;;;;;;;;;;;;;5049942;28;19925;-68
2023/10/17 04:49:20;;;;;;;;;;;;;;;;;;5034691;28;19972;-69
2023/10/17 04:51:51;;;;;;;;;;;;;;;;;;5049920;28;20015;-68
2023/10/17 04:54:39;;;;;;;;;;;;;;;;;;5054194;28;20484;-69
2023/10/17 04:57:05;;;;;;;;;;;;;;;;;;5054187;28;19955;-68
2023/10/17 05:07:30;;;;;;;;;;;;;;;;;;5054287;28;19921;-69
2023/10/17 06:18:42;;;;;;;;;;;;;;;;;;5033256;28;19976;-69
2023/10/17 06:22:49;;;;;;;;;;;;;;;;;;5047948;28;19929;-69
2023/10/17 06:24:06;;;;;;;;;;;;;;;;;;5028878;28;19929;-69
2023/10/17 06:26:47;;;;;;;;;;;;;;;;;;5032383;28;20338;-68
2023/10/17 06:31:55;;;;;;;;;;;;;;;;;;5032537;28;19988;-70
2023/10/17 06:34:22;;;;;;;;;;;;;;;;;;5048124;28;20362;-68
2023/10/17 06:36:55;;;;;;;;;;;;;;;;;;5047999;28;20002;-69
2023/10/17 06:39:24;;;;;;;;;;;;;;;;;;5032367;28;20013;-68
2023/10/17 06:41:58;;;;;;;;;;;;;;;;;;4998239;28;19928;-69
2023/10/17 06:44:26;;;;;;;;;;;;;;;;;;5047607;28;19925;-69
2023/10/17 06:46:55;;;;;;;;;;;;;;;;;;5047771;28;19921;-69
2023/10/17 06:54:41;;;;;;;;;;;;;;;;;;5067769;28;19921;-69
2023/10/17 06:57:19;;;;;;;;;;;;;;;;;;5034428;28;20653;-69
2023/10/17 06:59:45;;;;;;;;;;;;;;;;;;5052182;28;19924;-69
2023/10/17 07:04:56;;;;;;;;;;;;;;;;;;5052256;28;20290;-70
2023/10/17 07:07:23;;;;;;;;;;;;;;;;;;5052329;28;19927;-69
2023/10/17 07:10:16;;;;;;;;;;;;;;;;;;5052199;28;19920;-69
2023/10/17 07:12:40;;;;;;;;;;;;;;;;;;5051935;28;20378;-69
2023/10/17 07:15:18;;;;;;;;;;;;;;;;;;5052061;28;19999;-69
2023/10/17 07:17:49;;;;;;;;;;;;;;;;;;5023107;28;19925;-69
2023/10/17 07:20:41;;;;;;;;;;;;;;;;;;5032426;28;19925;-69
2023/10/17 07:23:13;;;;;;;;;;;;;;;;;;5014143;28;19926;-69
2023/10/17 07:25:39;;;;;;;;;;;;;;;;;;5031970;28;19932;-68
2023/10/17 07:28:10;;;;;;;;;;;;;;;;;;5031945;28;19921;-69
2023/10/17 07:30:48;;;;;;;;;;;;;;;;;;5032289;28;19936;-69
2023/10/17 07:33:17;;;;;;;;;;;;;;;;;;5032032;28;19971;-69
2023/10/17 07:35:43;;;;;;;;;;;;;;;;;;5032187;28;19921;-70
2023/10/17 07:38:09;;;;;;;;;;;;;;;;;;5031756;28;20383;-68
2023/10/17 07:43:05;;;;;;;;;;;;;;;;;;5032036;28;19972;-69
2023/10/17 07:45:41;;;;;;;;;;;;;;;;;;5031685;28;20359;-69
2023/10/17 07:48:20;;;;;;;;;;;;;;;;;;4997972;28;19921;-70
2023/10/17 07:50:46;;;;;;;;;;;;;;;;;;5046989;28;20411;-69
2023/10/17 07:53:15;;;;;;;;;;;;;;;;;;5024432;28;19921;-69
2023/10/17 07:55:46;;;;;;;;;;;;;;;;;;5033843;28;19925;-69
2023/10/17 07:58:17;;;;;;;;;;;;;;;;;;5034001;28;20011;-69
2023/10/17 08:00:43;;;;;;;;;;;;;;;;;;5051397;28;19921;-68
2023/10/17 08:03:19;;;;;;;;;;;;;;;;;;5051614;28;19936;-70
2023/10/17 08:05:45;;;;;;;;;;;;;;;;;;5033535;28;20019;-70
2023/10/17 08:08:14;;;;;;;;;;;;;;;;;;5051721;28;20048;-70
2023/10/17 08:10:45;;;;;;;;;;;;;;;;;;5051430;28;19962;-70
2023/10/17 08:13:12;;;;;;;;;;;;;;;;;;5050299;28;19936;-69
2023/10/17 08:15:53;;;;;;;;;;;;;;;;;;5051115;28;19964;-71
2023/10/17 08:18:22;;;;;;;;;;;;;;;;;;5016631;28;20293;-65
2023/10/17 08:23:27;;;;;;;;;;;;;;;;;;5012935;28;19925;-64
2023/10/17 08:25:52;;;;;;;;;;;;;;;;;;5031111;28;19932;-64
2023/10/17 08:28:31;;;;;;;;;;;;;;;;;;5031221;28;19921;-64
2023/10/17 08:30:59;;;;;;;;;;;;;;;;;;5014458;28;19967;-64
2023/10/17 08:33:36;;;;;;;;;;;;;;;;;;5034926;28;20021;-65
2023/10/17 08:36:02;;;;;;;;;;;;;;;;;;5034748;28;19936;-64
2023/10/17 08:38:33;;;;;;;;;;;;;;;;;;5050131;28;19921;-64
2023/10/17 08:40:59;;;;;;;;;;;;;;;;;;5034719;28;19925;-64
2023/10/17 08:43:31;;;;;;;;;;;;;;;;;;5034595;28;19943;-65
2023/10/17 08:45:58;;;;;;;;;;;;;;;;;;5017083;28;20004;-64
2023/10/17 08:48:24;;;;;;;;;;;;;;;;;;5050006;28;19979;-64
2023/10/17 08:50:53;;;;;;;;;;;;;;;;;;5034483;28;19948;-65
2023/10/17 08:53:23;;;;;;;;;;;;;;;;;;5046392;28;19968;-64
2023/10/17 08:55:50;;;;;;;;;;;;;;;;;;5054425;28;19926;-63
2023/10/17 08:58:32;;;;;;;;;;;;;;;;;;5054770;28;19920;-63
2023/10/17 09:01:07;;;;;;;;;;;;;;;;;;5054273;28;20351;-65
2023/10/17 09:03:35;;;;;;;;;;;;;;;;;;5036362;28;19960;-64
2023/10/17 09:11:30;;;;;;;;;;;;;;;;;;5054184;28;19924;-64
2023/10/17 09:14:16;;;;;;;;;;;;;;;;;;5054122;28;19975;-64
2023/10/17 09:16:43;;;;;;;;;;;;;;;;;;5033293;28;19928;-64
2023/10/17 09:19:14;;;;;;;;;;;;;;;;;;5000077;28;20016;-65
2023/10/17 09:21:42;;;;;;;;;;;;;;;;;;5016232;28;19929;-65
2023/10/17 09:24:08;;;;;;;;;;;;;;;;;;5016213;28;20040;-62
2023/10/17 09:26:36;;;;;;;;;;;;;;;;;;5034004;28;20422;-64
2023/10/17 09:29:02;;;;;;;;;;;;;;;;;;5049536;28;20501;-64
2023/10/17 09:31:29;;;;;;;;;;;;;;;;;;5016189;28;20008;-64
2023/10/17 09:33:56;;;;;;;;;;;;;;;;;;5049205;28;19927;-65
2023/10/17 09:36:22;;;;;;;;;;;;;;;;;;5049073;28;19921;-64
2023/10/17 09:38:48;;;;;;;;;;;;;;;;;;5048951;28;19972;-65
2023/10/17 09:41:23;;;;;;;;;;;;;;;;;;5033670;28;19975;-64
2023/10/17 09:43:49;;;;;;;;;;;;;;;;;;5014765;28;20386;-65
2023/10/17 09:46:15;;;;;;;;;;;;;;;;;;4999222;28;20003;-64
2023/10/17 09:48:44;;;;;;;;;;;;;;;;;;5033623;28;19932;-64
2023/10/17 09:51:10;;;;;;;;;;;;;;;;;;5033667;28;19925;-64
2023/10/17 09:53:36;;;;;;;;;;;;;;;;;;5029754;28;19990;-64
2023/10/17 09:56:03;;;;;;;;;;;;;;;;;;5035335;28;20565;-65
2023/10/17 09:58:29;;;;;;;;;;;;;;;;;;5035415;28;20011;-64
2023/10/17 10:00:55;;;;;;;;;;;;;;;;;;5053303;28;19995;-63
2023/10/17 10:03:20;;;;;;;;;;;;;;;;;;5035432;28;19968;-64
2023/10/17 10:05:47;;;;;;;;;;;;;;;;;;5053257;28;20011;-64
2023/10/17 10:08:12;;;;;;;;;;;;;;;;;;5053318;28;19921;-64
2023/10/17 10:10:38;;;;;;;;;;;;;;;;;;5035202;28;20320;-64
2023/10/17 10:13:08;;;;;;;;;;;;;;;;;;5034687;28;20413;-63
2023/10/17 10:15:34;;;;;;;;;;;;;;;;;;5035191;28;19924;-64
2023/10/17 10:18:00;;;;;;;;;;;;;;;;;;5021633;28;19921;-64
2023/10/17 10:20:25;;;;;;;;;;;;;;;;;;5032954;28;19925;-64
2023/10/17 10:22:52;;;;;;;;;;;;;;;;;;5015046;28;19925;-64
2023/10/17 10:25:18;;;;;;;;;;;;;;;;;;5033128;28;19967;-65
2023/10/17 10:27:46;;;;;;;;;;;;;;;;;;4998697;28;19928;-65
2023/10/17 10:30:12;;;;;;;;;;;;;;;;;;5032727;28;20008;-64
2023/10/17 10:32:38;;;;;;;;;;;;;;;;;;5014805;28;20008;-65
2023/10/17 10:35:07;;;;;;;;;;;;;;;;;;5032629;28;19982;-65
2023/10/17 10:37:35;;;;;;;;;;;;;;;;;;5032811;28;19921;-64
2023/10/17 10:40:01;;;;;;;;;;;;;;;;;;5047348;28;19928;-65
2023/10/17 10:42:30;;;;;;;;;;;;;;;;;;5014096;28;19921;-65
2023/10/17 10:44:56;;;;;;;;;;;;;;;;;;5047057;28;19929;-64
2023/10/17 10:47:23;;;;;;;;;;;;;;;;;;5046787;28;19928;-64
2023/10/17 10:49:49;;;;;;;;;;;;;;;;;;5046980;28;19928;-64
2023/10/17 10:52:16;;;;;;;;;;;;;;;;;;5034381;28;20392;-64
2023/10/17 10:54:43;;;;;;;;;;;;;;;;;;5033200;28;19928;-64
2023/10/17 10:57:09;;;;;;;;;;;;;;;;;;5033563;28;19921;-65
2023/10/17 10:59:35;;;;;;;;;;;;;;;;;;5033792;28;20439;-65
2023/10/17 11:02:01;;;;;;;;;;;;;;;;;;5051206;28;20015;-65
2023/10/17 11:04:29;;;;;;;;;;;;;;;;;;5033303;28;20366;-62
2023/10/17 11:06:55;;;;;;;;;;;;;;;;;;5051391;28;19925;-64
2023/10/17 11:09:21;;;;;;;;;;;;;;;;;;5033283;28;20286;-65
2023/10/17 11:11:47;;;;;;;;;;;;;;;;;;5033220;28;19920;-65
2023/10/17 11:14:12;;;;;;;;;;;;;;;;;;5049874;28;19924;-64
2023/10/17 11:16:39;;;;;;;;;;;;;;;;;;5031012;28;19924;-64
2023/10/17 11:19:05;;;;;;;;;;;;;;;;;;5031132;28;19921;-64
2023/10/17 11:21:31;;;;;;;;;;;;;;;;;;4997082;28;20616;-65
2023/10/17 11:23:59;;;;;;;;;;;;;;;;;;5046271;28;19933;-65
2023/10/17 11:26:25;;;;;;;;;;;;;;;;;;5031122;28;20008;-64
2023/10/17 11:28:51;;;;;;;;;;;;;;;;;;5013247;28;19959;-65
2023/10/17 11:31:26;;;;;;;;;;;;;;;;;;5013256;28;19960;-64
2023/10/17 11:33:52;;;;;;;;;;;;;;;;;;5030924;28;20403;-64
2023/10/17 11:36:22;;;;;;;;;;;;;;;;;;5013152;28;19928;-64
2023/10/17 11:38:48;;;;;;;;;;;;;;;;;;4970452;28;1738426;-64
2023/10/17 11:41:15;;;;;;;;;;;;;;;;;;5013906;28;19925;-64
2023/10/17 11:43:54;;;;;;;;;;;;;;;;;;5031415;28;19929;-64
2023/10/17 11:46:24;;;;;;;;;;;;;;;;;;5014040;28;19932;-65
2023/10/17 11:48:54;;;;;;;;;;;;;;;;;;5046769;28;19925;-65
2023/10/17 11:51:20;;;;;;;;;;;;;;;;;;5031757;28;19928;-64
2023/10/17 11:53:45;;;;;;;;;;;;;;;;;;5046491;28;19921;-64
2023/10/17 11:56:14;;;;;;;;;;;;;;;;;;5067001;28;20036;-64
2023/10/17 11:58:40;;;;;;;;;;;;;;;;;;5033767;28;20423;-64
2023/10/17 12:01:05;;;;;;;;;;;;;;;;;;5051544;28;19925;-65
2023/10/17 12:03:31;;;;;;;;;;;;;;;;;;5051397;28;19971;-64
2023/10/17 12:06:00;;;;;;;;;;;;;;;;;;5034756;28;20289;-64
2023/10/17 12:08:29;;;;;;;;;;;;;;;;;;5037399;28;20795;-64
2023/10/17 12:10:55;;;;;;;;;;;;;;;;;;5055240;28;19924;-64
2023/10/17 12:13:21;;;;;;;;;;;;;;;;;;5055417;28;19931;-64
2023/10/17 12:15:47;;;;;;;;;;;;;;;;;;5037269;28;19921;-65
2023/10/17 12:18:13;;;;;;;;;;;;;;;;;;5022096;28;19925;-65
2023/10/17 12:20:42;;;;;;;;;;;;;;;;;;5001047;28;19966;-64
2023/10/17 12:23:11;;;;;;;;;;;;;;;;;;5035270;28;19921;-65
2023/10/17 12:25:37;;;;;;;;;;;;;;;;;;5050439;28;19925;-65
2023/10/17 12:28:03;;;;;;;;;;;;;;;;;;5017487;28;19925;-64
2023/10/17 12:30:35;;;;;;;;;;;;;;;;;;5035242;28;19925;-65
2023/10/17 12:33:01;;;;;;;;;;;;;;;;;;5035061;28;19921;-65
2023/10/17 12:35:30;;;;;;;;;;;;;;;;;;5035061;28;19925;-64
2023/10/17 12:38:14;;;;;;;;;;;;;;;;;;5035116;28;19925;-64
2023/10/17 12:40:40;;;;;;;;;;;;;;;;;;5049949;28;20020;-64
2023/10/17 12:43:08;;;;;;;;;;;;;;;;;;5016972;28;20008;-64
2023/10/17 12:45:36;;;;;;;;;;;;;;;;;;5050252;28;19921;-65
2023/10/17 12:48:02;;;;;;;;;;;;;;;;;;5050398;28;20279;-64
2023/10/17 12:50:29;;;;;;;;;;;;;;;;;;5034529;28;19974;-64
2023/10/17 12:52:55;;;;;;;;;;;;;;;;;;5058131;28;19921;-64
2023/10/17 12:55:21;;;;;;;;;;;;;;;;;;5049721;22;19979;-61
2023/10/17 12:57:47;;;;;;;;;;;;;;;;;;5013938;28;19928;-61
2023/10/17 13:00:14;;;;;;;;;;;;;;;;;;5014961;28;19956;-61
2023/10/17 13:02:40;;;;;;;;;;;;;;;;;;5015077;28;19964;-61
2023/10/17 13:05:09;;;;;;;;;;;;;;;;;;5014429;28;19999;-61
2023/10/17 13:07:34;;;;;;;;;;;;;;;;;;5014743;28;20291;-61
2023/10/17 13:10:00;;;;;;;;;;;;;;;;;;5014666;28;19926;-61
2023/10/17 13:12:26;;;;;;;;;;;;;;;;;;5014953;28;19921;-61
2023/10/17 13:14:53;;;;;;;;;;;;;;;;;;5014410;28;19987;-61
2023/10/17 13:17:21;;;;;;;;;;;;;;;;;;5021761;28;19960;-61
2023/10/17 13:19:49;;;;;;;;;;;;;;;;;;5034056;28;19986;-61
2023/10/17 13:22:17;;;;;;;;;;;;;;;;;;5034546;28;20208;-61
2023/10/17 13:24:45;;;;;;;;;;;;;;;;;;5032687;28;20452;-60
2023/10/17 13:27:11;;;;;;;;;;;;;;;;;;5034295;28;19930;-61
2023/10/17 13:29:36;;;;;;;;;;;;;;;;;;5018711;28;19928;-61
2023/10/17 13:32:07;;;;;;;;;;;;;;;;;;5014177;28;20394;-61
2023/10/17 13:34:33;;;;;;;;;;;;;;;;;;5014045;28;19980;-61
2023/10/17 13:36:59;;;;;;;;;;;;;;;;;;5014085;28;19968;-61
2023/10/17 13:39:24;;;;;;;;;;;;;;;;;;5012759;28;20008;-61
2023/10/17 13:41:51;;;;;;;;;;;;;;;;;;5012721;28;20409;-61
2023/10/17 13:44:17;;;;;;;;;;;;;;;;;;5014070;28;19983;-61
2023/10/17 13:46:43;;;;;;;;;;;;;;;;;;5013849;28;19922;-61
2023/10/17 13:49:09;;;;;;;;;;;;;;;;;;5014295;28;19948;-61
2023/10/17 13:51:34;;;;;;;;;;;;;;;;;;5013920;28;19921;-61
2023/10/17 13:54:00;;;;;;;;;;;;;;;;;;5052199;28;20277;-61
2023/10/17 13:56:27;;;;;;;;;;;;;;;;;;5073449;28;19927;-61
2023/10/17 13:58:53;;;;;;;;;;;;;;;;;;5055630;28;19931;-61
2023/10/17 14:01:31;;;;;;;;;;;;;;;;;;5055191;28;19920;-61
2023/10/17 14:03:57;;;;;;;;;;;;;;;;;;5038201;28;19983;-62
2023/10/17 14:06:23;;;;;;;;;;;;;;;;;;5032246;28;20367;-62
2023/10/17 14:08:50;;;;;;;;;;;;;;;;;;5015319;28;19925;-61
2023/10/17 14:11:19;;;;;;;;;;;;;;;;;;5015467;28;20362;-61
2023/10/17 14:13:45;;;;;;;;;;;;;;;;;;5033181;28;20606;-61
2023/10/17 14:16:11;;;;;;;;;;;;;;;;;;5033193;28;19925;-61
2023/10/17 14:18:42;;;;;;;;;;;;;;;;;;5051422;28;19928;-61
2023/10/17 14:21:34;;;;;;;;;;;;;;;;;;5053039;28;19921;-61
2023/10/17 14:24:06;;;;;;;;;;;;;;;;;;5052875;28;19928;-61
2023/10/17 14:26:32;;;;;;;;;;;;;;;;;;5053019;28;19925;-61
2023/10/17 14:29:01;;;;;;;;;;;;;;;;;;5052460;28;20043;-61
2023/10/17 14:31:29;;;;;;;;;;;;;;;;;;5052898;28;19974;-61
2023/10/17 14:33:55;;;;;;;;;;;;;;;;;;5052255;28;19927;-61
2023/10/17 14:36:21;;;;;;;;;;;;;;;;;;5051771;28;20362;-61
2023/10/17 14:38:47;;;;;;;;;;;;;;;;;;5084470;28;19920;-61
2023/10/17 14:41:13;;;;;;;;;;;;;;;;;;5083733;28;19924;-61
2023/10/17 14:43:43;;;;;;;;;;;;;;;;;;5051818;28;19983;-61
2023/10/17 14:46:09;;;;;;;;;;;;;;;;;;5051619;28;19932;-62
2023/10/17 14:48:36;;;;;;;;;;;;;;;;;;5083666;28;19921;-61
2023/10/17 14:51:02;;;;;;;;;;;;;;;;;;5051756;28;19975;-61
2023/10/17 14:53:28;;;;;;;;;;;;;;;;;;5064013;28;20005;-61
2023/10/17 14:55:56;;;;;;;;;;;;;;;;;;5071028;28;20419;-61
2023/10/17 14:58:21;;;;;;;;;;;;;;;;;;5053777;28;19920;-61
2023/10/17 15:00:48;;;;;;;;;;;;;;;;;;5054011;28;19928;-61
2023/10/17 15:03:14;;;;;;;;;;;;;;;;;;5054099;28;20369;-61
2023/10/17 15:05:40;;;;;;;;;;;;;;;;;;5072174;28;19931;-61
2023/10/17 15:08:06;;;;;;;;;;;;;;;;;;5072161;28;19971;-61
2023/10/17 15:10:32;;;;;;;;;;;;;;;;;;5047755;28;19932;-61
2023/10/17 15:12:59;;;;;;;;;;;;;;;;;;5032245;28;19929;-61
2023/10/17 15:15:24;;;;;;;;;;;;;;;;;;5014645;28;19987;-61
2023/10/17 15:17:50;;;;;;;;;;;;;;;;;;5034493;28;19925;-61
2023/10/17 15:20:16;;;;;;;;;;;;;;;;;;5052131;28;20420;-62
2023/10/17 15:22:42;;;;;;;;;;;;;;;;;;5084414;28;19976;-61
2023/10/17 15:25:14;;;;;;;;;;;;;;;;;;5051916;28;20390;-61
2023/10/17 15:27:40;;;;;;;;;;;;;;;;;;5051896;28;19925;-61
2023/10/17 15:30:08;;;;;;;;;;;;;;;;;;5051788;28;19954;-62
2023/10/17 15:32:34;;;;;;;;;;;;;;;;;;5051628;28;19968;-62
2023/10/17 15:35:00;;;;;;;;;;;;;;;;;;5051655;28;19967;-61
2023/10/17 15:37:26;;;;;;;;;;;;;;;;;;5051723;28;20015;-62
2023/10/17 15:39:53;;;;;;;;;;;;;;;;;;5051309;28;19921;-62
2023/10/17 15:42:19;;;;;;;;;;;;;;;;;;5051283;28;19920;-61
2023/10/17 15:44:48;;;;;;;;;;;;;;;;;;5033619;28;19979;-61
2023/10/17 15:47:14;;;;;;;;;;;;;;;;;;5051495;28;19920;-61
2023/10/17 15:49:39;;;;;;;;;;;;;;;;;;5051526;28;19935;-62
2023/10/17 15:52:05;;;;;;;;;;;;;;;;;;5052906;28;19928;-62
2023/10/17 15:54:32;;;;;;;;;;;;;;;;;;5071518;28;19925;-61
2023/10/17 15:56:58;;;;;;;;;;;;;;;;;;5071571;28;19950;-61
2023/10/17 15:59:23;;;;;;;;;;;;;;;;;;5071599;28;19931;-62
2023/10/17 16:01:49;;;;;;;;;;;;;;;;;;5071710;28;19920;-62
2023/10/17 16:04:15;;;;;;;;;;;;;;;;;;5036640;28;19959;-62
2023/10/17 16:06:42;;;;;;;;;;;;;;;;;;5053380;28;19970;-61
2023/10/17 16:09:12;;;;;;;;;;;;;;;;;;5071313;28;19943;-61
2023/10/17 16:11:38;;;;;;;;;;;;;;;;;;5036738;28;20003;-61
2023/10/17 16:14:04;;;;;;;;;;;;;;;;;;5071190;28;20429;-61
2023/10/17 16:16:30;;;;;;;;;;;;;;;;;;5070498;28;19924;-61
2023/10/17 16:18:56;;;;;;;;;;;;;;;;;;5049794;28;20788;-62
2023/10/17 16:21:21;;;;;;;;;;;;;;;;;;5051139;28;20234;-61
2023/10/17 16:23:50;;;;;;;;;;;;;;;;;;5049643;28;19931;-61
2023/10/17 16:26:17;;;;;;;;;;;;;;;;;;5082915;28;20333;-62
2023/10/17 16:28:43;;;;;;;;;;;;;;;;;;5050426;28;19951;-61
2023/10/17 16:31:09;;;;;;;;;;;;;;;;;;5050380;28;19921;-61
2023/10/17 16:33:34;;;;;;;;;;;;;;;;;;5050119;28;19925;-61
2023/10/17 16:36:00;;;;;;;;;;;;;;;;;;5050422;28;19975;-62
2023/10/17 16:38:26;;;;;;;;;;;;;;;;;;5082183;28;20007;-62
2023/10/17 16:40:52;;;;;;;;;;;;;;;;;;5082334;28;19921;-61
2023/10/17 16:43:18;;;;;;;;;;;;;;;;;;5049859;28;19920;-61
2023/10/17 16:45:44;;;;;;;;;;;;;;;;;;5050362;28;20095;-61
2023/10/17 16:48:10;;;;;;;;;;;;;;;;;;5051210;28;19928;-61
2023/10/17 16:50:36;;;;;;;;;;;;;;;;;;5051313;28;19928;-61
2023/10/17 16:53:02;;;;;;;;;;;;;;;;;;5089044;28;19920;-61
2023/10/17 16:55:28;;;;;;;;;;;;;;;;;;5074671;28;19975;-60
2023/10/17 16:57:54;;;;;;;;;;;;;;;;;;5074766;28;19959;-61
2023/10/17 17:00:20;;;;;;;;;;;;;;;;;;5074682;28;20355;-61
2023/10/17 17:02:46;;;;;;;;;;;;;;;;;;5056506;28;20034;-61
2023/10/17 17:05:12;;;;;;;;;;;;;;;;;;5056511;28;19928;-61
2023/10/17 17:07:38;;;;;;;;;;;;;;;;;;5074456;28;19924;-61
2023/10/17 17:10:05;;;;;;;;;;;;;;;;;;5074452;28;19935;-62
2023/10/17 17:12:31;;;;;;;;;;;;;;;;;;5056411;28;19931;-62
2023/10/17 17:14:57;;;;;;;;;;;;;;;;;;5073297;28;20352;-62
2023/10/17 17:17:23;;;;;;;;;;;;;;;;;;5065473;28;19935;-62
2023/10/17 17:19:49;;;;;;;;;;;;;;;;;;5085522;28;19925;-60
2023/10/17 17:22:15;;;;;;;;;;;;;;;;;;5053567;28;19996;-61
2023/10/17 17:24:41;;;;;;;;;;;;;;;;;;5053379;28;19978;-61
2023/10/17 17:27:07;;;;;;;;;;;;;;;;;;5050327;28;19921;-61
2023/10/17 17:29:34;;;;;;;;;;;;;;;;;;5033167;28;20019;-61
2023/10/17 17:32:00;;;;;;;;;;;;;;;;;;5033916;28;19921;-61
2023/10/17 17:34:26;;;;;;;;;;;;;;;;;;4999795;28;19968;-61
2023/10/17 17:36:52;;;;;;;;;;;;;;;;;;5033425;28;19956;-61
2023/10/17 17:39:21;;;;;;;;;;;;;;;;;;5015222;28;19927;-61
2023/10/17 17:41:47;;;;;;;;;;;;;;;;;;5032961;28;20701;-61
2023/10/17 17:44:13;;;;;;;;;;;;;;;;;;5032897;28;20032;-61
2023/10/17 17:46:39;;;;;;;;;;;;;;;;;;5033050;28;20471;-61
2023/10/17 17:49:05;;;;;;;;;;;;;;;;;;5032597;28;20034;-61
2023/10/17 17:51:31;;;;;;;;;;;;;;;;;;5032872;28;19932;-61
2023/10/17 17:53:57;;;;;;;;;;;;;;;;;;5066910;28;19929;-61
2023/10/17 17:56:23;;;;;;;;;;;;;;;;;;5055669;28;19935;-61
2023/10/17 17:58:51;;;;;;;;;;;;;;;;;;5073394;28;19929;-61
2023/10/17 18:01:17;;;;;;;;;;;;;;;;;;5073682;28;19967;-61
2023/10/17 18:03:43;;;;;;;;;;;;;;;;;;5072510;28;19975;-61
2023/10/17 18:06:09;;;;;;;;;;;;;;;;;;5073375;28;19931;-61
2023/10/17 18:08:35;;;;;;;;;;;;;;;;;;5073569;28;19921;-61
2023/10/17 18:11:01;;;;;;;;;;;;;;;;;;5073187;28;20007;-61
2023/10/17 18:13:27;;;;;;;;;;;;;;;;;;5073517;28;19925;-61
2023/10/17 18:15:53;;;;;;;;;;;;;;;;;;5055336;28;19921;-61
2023/10/17 18:18:19;;;;;;;;;;;;;;;;;;5057364;28;19956;-61
2023/10/17 18:20:45;;;;;;;;;;;;;;;;;;5053106;28;19924;-61
2023/10/17 18:23:16;;;;;;;;;;;;;;;;;;5085614;28;19970;-61
2023/10/17 18:25:42;;;;;;;;;;;;;;;;;;5085246;28;19924;-61
2023/10/17 18:28:10;;;;;;;;;;;;;;;;;;5085164;28;19968;-61
2023/10/17 18:30:36;;;;;;;;;;;;;;;;;;5053039;28;19927;-61
2023/10/17 18:33:02;;;;;;;;;;;;;;;;;;5052808;28;20352;-61
2023/10/17 18:35:28;;;;;;;;;;;;;;;;;;5052918;28;19931;-61
2023/10/17 18:37:54;;;;;;;;;;;;;;;;;;5052809;28;19995;-62
2023/10/17 18:40:20;;;;;;;;;;;;;;;;;;5084738;28;19925;-62
2023/10/17 18:42:48;;;;;;;;;;;;;;;;;;5052718;28;19920;-62